Search for airport 
image banner adimage banner adimage banner ad
image banner ad

PN24 - Snider

Located in Freeport, United States

ICAO - PN24, IATA -

Data provided by Airmate  

General information

Coordinates: N40°41'0" W79°39'59"
Elevation is 755 feet MSL.
Magnetic variation is -08° East
View others Airports in Pennsylvania

Operational data

Special qualification required
Current time UTC:
Current local time:
METAR: KBTP 182356Z AUTO 00000KT 9SM CLR 23/07 A3029 RMK AO2 SLP259 6//// T02330067 10256 20233 56004
View NOTAMs / SUP AIP / TFR affecting this airport [VIEW]
Communications frequencies: [VIEW]

Runways:

RWY identifierQFULength (ft)Width (ft)SurfaceLDA (ft)
04W7900300WATER
22W7900300WATER
12W9000300WATER
30W9000300WATER

Airport contact information

Address: Freeport United States

Satellite view of PN24